createdAt,value
2023-03-19T00:00:40.044Z,12
2023-03-19T00:03:11.641Z,14
2023-03-19T00:05:42.464Z,12
2023-03-19T00:08:13.055Z,12
2023-03-19T00:10:43.678Z,8
2023-03-19T00:13:14.152Z,12
2023-03-19T00:15:44.823Z,12
2023-03-19T00:18:15.720Z,12
2023-03-19T00:20:46.242Z,4
2023-03-19T00:23:16.892Z,8
2023-03-19T00:25:47.316Z,11
2023-03-19T00:28:17.673Z,12
2023-03-19T00:30:48.652Z,12
2023-03-19T00:33:18.975Z,8
2023-03-19T00:35:50.063Z,8
2023-03-19T00:38:20.419Z,12
2023-03-19T00:40:51.101Z,8
2023-03-19T00:43:21.494Z,8
2023-03-19T00:45:52.626Z,8
2023-03-19T00:48:23.401Z,10
2023-03-19T00:50:54.502Z,10
2023-03-19T00:53:25.341Z,8
2023-03-19T00:55:55.628Z,11
2023-03-19T00:58:25.709Z,8
2023-03-19T01:00:55.617Z,8
2023-03-19T01:03:26.357Z,8
2023-03-19T01:05:56.585Z,12
2023-03-19T01:08:27.258Z,12
2023-03-19T01:10:57.910Z,8
2023-03-19T01:13:28.373Z,8
2023-03-19T01:15:58.959Z,8
2023-03-19T01:18:29.561Z,8
2023-03-19T01:20:59.830Z,10
2023-03-19T01:23:30.424Z,11
2023-03-19T01:26:00.582Z,8
2023-03-19T01:28:30.888Z,8
2023-03-19T01:31:02.029Z,8
2023-03-19T01:33:32.774Z,8
2023-03-19T01:36:03.578Z,8
2023-03-19T01:38:34.247Z,10
2023-03-19T01:41:05.938Z,8
2023-03-19T01:43:36.649Z,12
2023-03-19T01:46:07.592Z,11
2023-03-19T01:48:38.762Z,11
2023-03-19T01:51:09.431Z,8
2023-03-19T01:53:40.240Z,8
2023-03-19T01:56:17.087Z,8
2023-03-19T01:58:48.101Z,12
2023-03-19T02:01:19.267Z,8
2023-03-19T02:03:50.251Z,8
2023-03-19T02:06:21.292Z,8
2023-03-19T02:08:51.953Z,8
2023-03-19T02:11:22.611Z,8
2023-03-19T02:13:54.111Z,8
2023-03-19T02:16:25.121Z,8
2023-03-19T02:18:55.770Z,8
2023-03-19T02:21:26.290Z,8
2023-03-19T02:23:56.831Z,8
2023-03-19T02:26:27.835Z,8
2023-03-19T02:28:58.806Z,10
2023-03-19T02:31:29.964Z,12
2023-03-19T02:33:59.926Z,8
2023-03-19T02:36:30.526Z,8
2023-03-19T02:39:01.656Z,8
2023-03-19T02:41:32.408Z,9
2023-03-19T02:44:03.596Z,8
2023-03-19T02:46:34.060Z,8
2023-03-19T02:49:05.241Z,8
2023-03-19T02:51:35.494Z,8
2023-03-19T02:54:06.251Z,5
2023-03-19T02:56:37.007Z,8
2023-03-19T02:59:08.083Z,8
2023-03-19T03:01:39.369Z,8
2023-03-19T03:04:09.979Z,8
2023-03-19T03:06:41.101Z,8
2023-03-19T03:09:12.122Z,8
2023-03-19T03:11:42.797Z,8
2023-03-19T03:14:13.664Z,8
2023-03-19T03:16:44.728Z,8
2023-03-19T03:19:15.932Z,8
2023-03-19T03:21:46.746Z,8
2023-03-19T03:24:17.546Z,8
2023-03-19T03:26:48.541Z,8
2023-03-19T03:29:19.514Z,8
2023-03-19T03:31:50.311Z,7
2023-03-19T03:34:21.069Z,8
2023-03-19T03:36:52.120Z,4
2023-03-19T03:39:22.679Z,8
2023-03-19T03:41:53.960Z,8
2023-03-19T03:44:25.076Z,8
2023-03-19T03:46:55.428Z,8
2023-03-19T03:49:26.391Z,8
2023-03-19T03:51:57.092Z,8
2023-03-19T03:54:27.767Z,8
2023-03-19T03:56:59.892Z,8
2023-03-19T03:59:29.035Z,8
2023-03-19T04:01:59.427Z,8
2023-03-19T04:04:30.512Z,7
2023-03-19T04:07:01.727Z,8
2023-03-19T04:09:32.234Z,8
2023-03-19T04:12:03.091Z,8
2023-03-19T04:14:33.804Z,8
2023-03-19T04:17:04.801Z,11
2023-03-19T04:19:35.804Z,8
2023-03-19T04:22:06.529Z,8
2023-03-19T04:24:37.169Z,8
2023-03-19T04:27:07.714Z,8
2023-03-19T04:29:38.211Z,7
2023-03-19T04:32:09.422Z,8
2023-03-19T04:34:40.134Z,8
2023-03-19T04:37:10.792Z,8
2023-03-19T04:39:41.673Z,8
2023-03-19T04:42:13.242Z,8
2023-03-19T04:44:43.786Z,8
2023-03-19T04:47:15.385Z,8
2023-03-19T04:49:46.790Z,11
2023-03-19T04:52:16.054Z,8
2023-03-19T04:54:46.736Z,8
2023-03-19T04:57:17.325Z,8
2023-03-19T04:59:48.198Z,6
2023-03-19T05:02:19.096Z,8
2023-03-19T05:04:49.668Z,8
2023-03-19T05:07:20.785Z,8
2023-03-19T05:09:51.404Z,11
2023-03-19T05:12:23.000Z,8
2023-03-19T05:14:53.732Z,8
2023-03-19T05:17:24.730Z,8
2023-03-19T05:19:56.071Z,8
2023-03-19T05:22:26.815Z,9
2023-03-19T05:24:57.547Z,8
2023-03-19T05:27:29.329Z,8
2023-03-19T05:30:00.003Z,12
2023-03-19T05:32:29.582Z,12
2023-03-19T05:35:00.245Z,12
2023-03-19T05:37:31.119Z,8
2023-03-19T05:40:01.582Z,12
2023-03-19T05:42:32.129Z,8
2023-03-19T05:45:03.482Z,9
2023-03-19T05:47:34.998Z,8
2023-03-19T05:50:05.622Z,12
2023-03-19T05:52:36.838Z,8
2023-03-19T05:55:07.651Z,7
2023-03-19T05:57:38.322Z,8
2023-03-19T06:00:09.028Z,8
2023-03-19T06:02:39.502Z,8
2023-03-19T06:05:10.442Z,9
2023-03-19T06:07:41.002Z,12
2023-03-19T06:10:11.696Z,8
2023-03-19T06:12:42.155Z,8
2023-03-19T06:15:12.884Z,11
2023-03-19T06:17:43.300Z,8
2023-03-19T06:20:13.870Z,8
2023-03-19T06:22:44.419Z,12
2023-03-19T06:25:16.909Z,9
2023-03-19T06:27:47.245Z,12
2023-03-19T06:30:17.831Z,8
2023-03-19T06:32:48.617Z,8
2023-03-19T06:35:19.696Z,8
2023-03-19T06:37:50.592Z,12
2023-03-19T06:40:21.614Z,8
2023-03-19T06:42:52.478Z,12
2023-03-19T06:45:23.470Z,8
2023-03-19T06:47:54.567Z,8
2023-03-19T06:50:24.781Z,9
2023-03-19T06:52:55.569Z,12
2023-03-19T06:55:26.503Z,12
2023-03-19T06:57:57.173Z,8
2023-03-19T07:00:27.934Z,12
2023-03-19T07:02:58.628Z,9
2023-03-19T07:05:28.951Z,10
2023-03-19T07:07:59.779Z,8
2023-03-19T07:10:30.330Z,8
2023-03-19T07:13:00.560Z,8
2023-03-19T07:15:31.771Z,8
2023-03-19T07:18:02.493Z,8
2023-03-19T07:20:33.389Z,9
2023-03-19T07:23:05.024Z,10
2023-03-19T07:25:35.346Z,14
2023-03-19T07:28:06.187Z,12
2023-03-19T07:30:36.934Z,12
2023-03-19T07:33:07.463Z,12
2023-03-19T07:35:41.530Z,16
2023-03-19T07:38:12.095Z,16
2023-03-19T07:40:48.350Z,18
2023-03-19T07:43:13.463Z,12
2023-03-19T07:45:44.169Z,16
2023-03-19T07:48:23.617Z,12
2023-03-19T07:50:54.402Z,21
2023-03-19T07:53:25.246Z,12
2023-03-19T07:55:56.081Z,15
2023-03-19T07:58:29.007Z,19
2023-03-19T08:00:59.699Z,16
2023-03-19T08:03:30.363Z,16
2023-03-19T08:06:07.508Z,12
2023-03-19T08:08:41.428Z,16
2023-03-19T08:11:12.420Z,20
2023-03-19T08:13:48.560Z,17
2023-03-19T08:16:21.965Z,17
2023-03-19T08:18:52.404Z,13
2023-03-19T08:21:28.672Z,12
2023-03-19T08:24:00.399Z,16
2023-03-19T08:26:33.326Z,15
2023-03-19T08:29:06.814Z,12
2023-03-19T08:31:37.644Z,15
2023-03-19T08:34:12.030Z,16
2023-03-19T08:36:42.486Z,12
2023-03-19T08:39:13.883Z,16
2023-03-19T08:41:44.324Z,12
2023-03-19T08:44:16.587Z,16
2023-03-19T08:46:48.493Z,16
2023-03-19T08:49:19.869Z,16
2023-03-19T08:51:51.073Z,12
2023-03-19T08:54:22.881Z,16
2023-03-19T08:56:52.360Z,20
2023-03-19T08:59:22.504Z,17
2023-03-19T09:01:53.403Z,16
2023-03-19T09:04:24.460Z,19
2023-03-19T09:07:00.100Z,20
2023-03-19T09:09:34.225Z,16
2023-03-19T09:12:07.861Z,24
2023-03-19T09:14:42.319Z,20
2023-03-19T09:17:12.970Z,20
2023-03-19T09:19:42.471Z,20
2023-03-19T09:22:13.480Z,28
2023-03-19T09:24:46.993Z,20
2023-03-19T09:27:17.803Z,13
2023-03-19T09:29:49.672Z,20
2023-03-19T09:32:24.866Z,16
2023-03-19T09:34:56.980Z,16
2023-03-19T09:37:30.540Z,16
2023-03-19T09:40:01.557Z,12
2023-03-19T09:42:33.347Z,12
2023-03-19T09:45:04.614Z,16
2023-03-19T09:47:35.234Z,16
2023-03-19T09:50:06.687Z,19
2023-03-19T09:52:39.248Z,16
2023-03-19T09:55:13.293Z,15
2023-03-19T09:57:52.762Z,14
2023-03-19T10:00:27.124Z,15
2023-03-19T10:03:04.059Z,12
2023-03-19T10:05:35.721Z,12
2023-03-19T10:08:05.506Z,12
2023-03-19T10:10:44.764Z,16
2023-03-19T10:13:19.203Z,24
2023-03-19T10:15:58.462Z,24
2023-03-19T10:18:38.159Z,16
2023-03-19T10:21:17.017Z,14
2023-03-19T10:23:56.282Z,20
2023-03-19T10:26:28.259Z,42
2023-03-19T10:29:06.733Z,98
2023-03-19T10:31:37.172Z,12
2023-03-19T10:34:07.943Z,16
2023-03-19T10:36:39.053Z,16
2023-03-19T10:39:12.448Z,14
2023-03-19T10:41:48.499Z,12
2023-03-19T10:44:17.530Z,12
2023-03-19T10:46:52.796Z,16
2023-03-19T10:49:23.299Z,16
2023-03-19T10:51:57.928Z,12
2023-03-19T10:54:28.745Z,12
2023-03-19T10:56:59.924Z,12
2023-03-19T10:59:39.005Z,12
2023-03-19T11:02:07.741Z,12
2023-03-19T11:04:50.055Z,12
2023-03-19T11:07:26.443Z,9
2023-03-19T11:09:58.670Z,9
2023-03-19T11:12:38.475Z,12
2023-03-19T11:15:10.488Z,12
2023-03-19T11:17:40.693Z,20
2023-03-19T11:20:11.529Z,16
2023-03-19T11:22:42.172Z,16
2023-03-19T11:25:18.139Z,12
2023-03-19T11:27:48.654Z,12
2023-03-19T11:30:21.000Z,12
2023-03-19T11:32:51.380Z,12
2023-03-19T11:35:22.163Z,14
2023-03-19T11:37:52.742Z,20
2023-03-19T11:40:25.141Z,20
2023-03-19T11:42:54.626Z,9
2023-03-19T11:45:28.216Z,12
2023-03-19T11:48:00.393Z,12
2023-03-19T11:50:31.000Z,12
2023-03-19T11:53:01.680Z,12
2023-03-19T11:55:34.526Z,12
2023-03-19T11:58:05.477Z,20
2023-03-19T12:00:36.010Z,16
2023-03-19T12:03:09.968Z,20
2023-03-19T12:05:40.616Z,20
2023-03-19T12:08:09.906Z,16
2023-03-19T12:10:43.700Z,20
2023-03-19T12:13:14.677Z,16
2023-03-19T12:15:45.531Z,19
2023-03-19T12:18:16.528Z,14
2023-03-19T12:20:49.318Z,16
2023-03-19T12:23:20.088Z,20
2023-03-19T12:25:49.059Z,16
2023-03-19T12:28:21.575Z,13
2023-03-19T12:30:52.889Z,12
2023-03-19T12:33:25.369Z,14
2023-03-19T12:35:54.143Z,20
2023-03-19T12:38:25.555Z,13
2023-03-19T12:40:55.520Z,12
2023-03-19T12:43:24.185Z,20
2023-03-19T12:45:57.240Z,13
2023-03-19T12:48:30.466Z,25
2023-03-19T12:51:01.529Z,16
2023-03-19T12:53:32.032Z,12
2023-03-19T12:56:04.584Z,16
2023-03-19T12:58:35.457Z,16
2023-03-19T13:01:05.727Z,20
2023-03-19T13:03:36.322Z,16
2023-03-19T13:06:06.998Z,16
2023-03-19T13:08:38.540Z,16
2023-03-19T13:11:09.155Z,16
2023-03-19T13:13:40.869Z,16
2023-03-19T13:16:12.168Z,21
2023-03-19T13:18:42.924Z,15
2023-03-19T13:21:14.115Z,16
2023-03-19T13:23:45.261Z,16
2023-03-19T13:26:17.962Z,12
2023-03-19T13:28:49.110Z,18
2023-03-19T13:31:19.910Z,16
2023-03-19T13:33:50.797Z,12
2023-03-19T13:36:21.492Z,11
2023-03-19T13:38:52.292Z,17
2023-03-19T13:41:22.829Z,16
2023-03-19T13:43:54.327Z,12
2023-03-19T13:46:26.063Z,8
2023-03-19T13:48:58.445Z,16
2023-03-19T13:51:36.730Z,16
2023-03-19T13:54:07.191Z,12
2023-03-19T13:56:38.092Z,8
2023-03-19T13:59:07.083Z,16
2023-03-19T14:01:38.809Z,8
2023-03-19T14:04:10.135Z,10
2023-03-19T14:06:42.926Z,12
2023-03-19T14:09:11.914Z,13
2023-03-19T14:11:45.020Z,12
2023-03-19T14:14:17.595Z,12
2023-03-19T14:16:48.011Z,9
2023-03-19T14:19:18.905Z,8
2023-03-19T14:21:51.412Z,12
2023-03-19T14:24:54.085Z,12
2023-03-19T14:26:54.125Z,10
2023-03-19T14:29:26.093Z,12
2023-03-19T14:31:57.257Z,8
2023-03-19T14:34:29.925Z,10
2023-03-19T14:37:00.348Z,9
2023-03-19T14:39:32.030Z,12
2023-03-19T14:42:06.888Z,10
2023-03-19T14:44:39.454Z,12
2023-03-19T14:47:11.123Z,16
2023-03-19T14:49:41.415Z,16
2023-03-19T14:52:15.036Z,12
2023-03-19T14:54:45.522Z,12
2023-03-19T14:57:15.931Z,12
2023-03-19T14:59:48.683Z,10
2023-03-19T15:02:19.588Z,12
2023-03-19T15:04:50.647Z,9
2023-03-19T15:07:22.200Z,16
2023-03-19T15:09:52.158Z,16
2023-03-19T15:12:23.451Z,8
2023-03-19T15:14:58.951Z,8
2023-03-19T15:17:29.399Z,12
2023-03-19T15:20:03.898Z,12
2023-03-19T15:22:38.058Z,12
2023-03-19T15:25:11.878Z,12
2023-03-19T15:27:42.310Z,12
2023-03-19T15:30:17.529Z,12
2023-03-19T15:32:54.127Z,13
2023-03-19T15:35:15.952Z,16
2023-03-19T15:37:48.341Z,16
2023-03-19T15:40:19.356Z,16
2023-03-19T15:42:50.138Z,16
2023-03-19T15:45:20.841Z,12
2023-03-19T15:47:51.297Z,14
2023-03-19T15:50:22.453Z,16
2023-03-19T15:52:55.634Z,16
2023-03-19T15:55:26.340Z,17
2023-03-19T15:57:56.662Z,17
2023-03-19T16:00:27.890Z,16
2023-03-19T16:03:02.420Z,16
2023-03-19T16:05:35.297Z,16
2023-03-19T16:08:05.751Z,16
2023-03-19T16:10:52.631Z,16
2023-03-19T16:13:36.719Z,20
2023-03-19T16:16:07.318Z,16
2023-03-19T16:18:38.330Z,17
2023-03-19T16:21:09.420Z,16
2023-03-19T16:23:40.461Z,20
2023-03-19T16:26:13.231Z,20
2023-03-19T16:28:46.677Z,20
2023-03-19T16:31:17.363Z,16
2023-03-19T16:33:52.433Z,16
2023-03-19T16:36:23.464Z,20
2023-03-19T16:38:56.761Z,20
2023-03-19T16:41:27.078Z,24
2023-03-19T16:44:06.793Z,28
2023-03-19T16:46:39.713Z,28
2023-03-19T16:49:14.189Z,28
2023-03-19T16:51:44.501Z,28
2023-03-19T16:54:15.870Z,24
2023-03-19T16:56:49.089Z,28
2023-03-19T16:59:36.345Z,24
2023-03-19T17:02:06.699Z,27
2023-03-19T17:04:38.324Z,28
2023-03-19T17:07:08.587Z,28
2023-03-19T17:09:45.223Z,28
2023-03-19T17:12:15.507Z,32
2023-03-19T17:14:46.027Z,28
2023-03-19T17:17:19.843Z,32
2023-03-19T17:19:53.335Z,32
2023-03-19T17:22:35.878Z,44
2023-03-19T17:25:09.711Z,59
2023-03-19T17:27:40.726Z,47
2023-03-19T17:30:24.113Z,32
2023-03-19T17:32:56.447Z,36
2023-03-19T17:35:35.715Z,36
2023-03-19T17:38:09.183Z,35
2023-03-19T17:40:43.904Z,36
2023-03-19T17:43:14.054Z,32
2023-03-19T17:45:49.320Z,32
2023-03-19T17:48:22.622Z,32
2023-03-19T17:50:52.802Z,40
2023-03-19T17:53:25.080Z,36
2023-03-19T17:55:58.521Z,43
2023-03-19T17:58:29.564Z,36
2023-03-19T18:01:01.620Z,43
2023-03-19T18:03:31.633Z,48
2023-03-19T18:06:08.110Z,39
2023-03-19T18:08:38.647Z,38
2023-03-19T18:11:08.674Z,77
2023-03-19T18:13:42.833Z,44
2023-03-19T18:16:16.143Z,70
2023-03-19T18:18:46.650Z,68
2023-03-19T18:21:18.007Z,48
2023-03-19T18:23:50.423Z,61
2023-03-19T18:26:22.290Z,56
2023-03-19T18:28:56.571Z,56
2023-03-19T18:31:27.194Z,59
2023-03-19T18:33:58.057Z,54
2023-03-19T18:36:29.172Z,53
2023-03-19T18:39:04.412Z,54
2023-03-19T18:41:37.654Z,52
2023-03-19T18:44:08.438Z,53
2023-03-19T18:46:39.767Z,55
2023-03-19T18:49:10.081Z,55
2023-03-19T18:51:58.979Z,56
2023-03-19T18:54:13.919Z,58
2023-03-19T18:56:44.626Z,57
2023-03-19T18:59:20.223Z,64
2023-03-19T19:01:50.670Z,64
2023-03-19T19:04:24.557Z,58
2023-03-19T19:06:55.225Z,57
2023-03-19T19:09:25.627Z,60
2023-03-19T19:11:57.439Z,59
2023-03-19T19:14:27.344Z,63
2023-03-19T19:16:59.112Z,60
2023-03-19T19:19:29.691Z,60
2023-03-19T19:22:01.089Z,58
2023-03-19T19:24:31.539Z,61
2023-03-19T19:27:02.518Z,60
2023-03-19T19:29:32.723Z,65
2023-03-19T19:32:06.750Z,64
2023-03-19T19:34:37.690Z,60
2023-03-19T19:37:08.564Z,64
2023-03-19T19:39:39.379Z,64
2023-03-19T19:42:09.859Z,57
2023-03-19T19:44:44.423Z,59
2023-03-19T19:47:14.752Z,59
2023-03-19T19:49:44.970Z,48
2023-03-19T19:52:19.102Z,47
2023-03-19T19:54:59.304Z,47
2023-03-19T19:57:29.477Z,43
2023-03-19T19:59:59.697Z,44
2023-03-19T20:02:30.619Z,48
2023-03-19T20:05:00.651Z,52
2023-03-19T20:07:33.644Z,44
2023-03-19T20:10:11.785Z,47
2023-03-19T20:12:44.540Z,46
2023-03-19T20:15:12.828Z,56
2023-03-19T20:17:47.325Z,56
2023-03-19T20:20:20.393Z,64
2023-03-19T20:22:50.455Z,60
2023-03-19T20:25:20.836Z,64
2023-03-19T20:27:56.522Z,64
2023-03-19T20:30:27.551Z,64
2023-03-19T20:32:57.786Z,72
2023-03-19T20:35:28.658Z,68
2023-03-19T20:38:02.325Z,64
2023-03-19T20:40:37.469Z,64
2023-03-19T20:43:08.086Z,62
2023-03-19T20:45:43.653Z,65
2023-03-19T20:48:13.825Z,63
2023-03-19T20:50:46.629Z,65
2023-03-19T20:53:17.975Z,62
2023-03-19T20:55:48.427Z,63
2023-03-19T20:58:20.875Z,58
2023-03-19T21:00:51.176Z,55
2023-03-19T21:03:22.590Z,58
2023-03-19T21:05:52.573Z,60
2023-03-19T21:08:22.848Z,55
2023-03-19T21:10:54.470Z,52
2023-03-19T21:13:26.305Z,53
2023-03-19T21:15:59.773Z,49
2023-03-19T21:18:30.130Z,54
2023-03-19T21:21:00.172Z,52
2023-03-19T21:23:30.208Z,48
2023-03-19T21:26:00.726Z,48
2023-03-19T21:28:31.629Z,52
2023-03-19T21:31:03.478Z,52
2023-03-19T21:33:35.244Z,48
2023-03-19T21:36:08.741Z,51
2023-03-19T21:38:51.187Z,52
2023-03-19T21:41:21.424Z,57
2023-03-19T21:43:55.448Z,54
2023-03-19T21:46:29.272Z,57
2023-03-19T21:48:58.220Z,57
2023-03-19T21:51:29.882Z,57
2023-03-19T21:54:02.018Z,58
2023-03-19T21:56:35.623Z,59
2023-03-19T21:59:05.790Z,58
2023-03-19T22:01:36.305Z,59
2023-03-19T22:04:09.143Z,52
2023-03-19T22:06:46.324Z,52
2023-03-19T22:09:16.178Z,52
2023-03-19T22:11:52.704Z,51
2023-03-19T22:14:25.494Z,50
2023-03-19T22:16:57.591Z,48
2023-03-19T22:19:27.812Z,49
2023-03-19T22:21:58.561Z,52
2023-03-19T22:24:29.340Z,52
2023-03-19T22:27:04.468Z,56
2023-03-19T22:29:34.992Z,54
2023-03-19T22:32:05.426Z,59
2023-03-19T22:34:36.129Z,55
2023-03-19T22:37:06.412Z,56
2023-03-19T22:39:36.558Z,52
2023-03-19T22:42:07.163Z,58
2023-03-19T22:44:39.767Z,60
2023-03-19T22:47:10.862Z,60
2023-03-19T22:49:46.462Z,60
2023-03-19T22:52:19.208Z,61
2023-03-19T22:54:49.951Z,60
2023-03-19T22:57:20.931Z,57
2023-03-19T22:59:59.351Z,60
2023-03-19T23:02:35.929Z,58
2023-03-19T23:05:08.213Z,57
2023-03-19T23:07:39.264Z,56
2023-03-19T23:10:11.236Z,61
2023-03-19T23:12:41.901Z,60
2023-03-19T23:15:12.655Z,54
2023-03-19T23:17:42.888Z,54
2023-03-19T23:20:14.688Z,48
2023-03-19T23:22:48.565Z,50
2023-03-19T23:25:18.787Z,52
2023-03-19T23:27:52.480Z,52
2023-03-19T23:30:23.622Z,53
2023-03-19T23:32:54.534Z,52
2023-03-19T23:35:25.100Z,56
2023-03-19T23:37:59.852Z,53
2023-03-19T23:40:31.462Z,49
2023-03-19T23:43:04.121Z,52
2023-03-19T23:45:35.088Z,52
2023-03-19T23:48:05.468Z,51
2023-03-19T23:50:40.438Z,52
2023-03-19T23:53:11.191Z,46
2023-03-19T23:55:41.786Z,44
2023-03-19T23:58:12.488Z,41
